createdAt,value
2022-11-14T00:00:15.028Z,49.95
2022-11-14T00:01:15.535Z,49.95
2022-11-14T00:02:15.254Z,49.79
2022-11-14T00:03:16.437Z,52.21
2022-11-14T00:04:15.644Z,77.99
2022-11-14T00:05:15.652Z,71.70
2022-11-14T00:06:15.794Z,50.27
2022-11-14T00:07:15.953Z,49.63
2022-11-14T00:08:16.141Z,49.63
2022-11-14T00:09:16.279Z,49.79
2022-11-14T00:10:17.027Z,78.15
2022-11-14T00:11:16.633Z,59.30
2022-11-14T00:12:17.525Z,50.76
2022-11-14T00:13:16.892Z,78.31
2022-11-14T00:14:17.065Z,50.43
2022-11-14T00:15:17.204Z,50.43
2022-11-14T00:16:17.342Z,50.43
2022-11-14T00:17:17.505Z,51.24
2022-11-14T00:18:17.645Z,49.95
2022-11-14T00:19:18.130Z,50.60
2022-11-14T00:20:17.902Z,78.96
2022-11-14T00:21:19.030Z,78.31
2022-11-14T00:22:18.273Z,58.17
2022-11-14T00:23:18.413Z,76.54
2022-11-14T00:24:18.554Z,50.11
2022-11-14T00:25:18.680Z,51.56
2022-11-14T00:26:19.529Z,50.11
2022-11-14T00:27:19.056Z,49.95
2022-11-14T00:28:51.611Z,51.08
2022-11-14T00:29:20.075Z,51.24
2022-11-14T00:30:19.486Z,73.32
2022-11-14T00:31:19.653Z,49.79
2022-11-14T00:32:19.821Z,50.27
2022-11-14T00:33:20.731Z,52.37
2022-11-14T00:34:21.246Z,51.24
2022-11-14T00:35:21.070Z,50.27
2022-11-14T00:36:20.565Z,52.53
2022-11-14T00:37:20.706Z,50.27
2022-11-14T00:38:21.079Z,52.21
2022-11-14T00:39:21.082Z,76.70
2022-11-14T00:40:21.219Z,57.85
2022-11-14T00:41:21.383Z,56.24
2022-11-14T00:42:21.550Z,49.79
2022-11-14T00:43:21.725Z,50.11
2022-11-14T00:44:21.898Z,72.03
2022-11-14T00:45:22.076Z,59.14
2022-11-14T00:46:22.278Z,55.27
2022-11-14T00:47:22.440Z,78.63
2022-11-14T00:48:23.570Z,50.11
2022-11-14T00:49:22.820Z,50.27
2022-11-14T00:50:23.678Z,50.60
2022-11-14T00:51:23.216Z,79.12
2022-11-14T00:52:23.407Z,76.22
2022-11-14T00:53:24.074Z,50.43
2022-11-14T00:54:23.726Z,49.79
2022-11-14T00:55:24.567Z,49.47
2022-11-14T00:56:24.094Z,50.11
2022-11-14T00:57:24.256Z,50.27
2022-11-14T00:58:25.422Z,49.95
2022-11-14T00:59:24.552Z,49.95
2022-11-14T01:00:24.758Z,52.85
2022-11-14T01:01:25.607Z,77.18
2022-11-14T01:02:25.018Z,51.72
2022-11-14T01:03:25.177Z,55.75
2022-11-14T01:04:25.326Z,70.58
2022-11-14T01:05:25.510Z,50.76
2022-11-14T01:06:25.794Z,70.74
2022-11-14T01:07:26.091Z,49.79
2022-11-14T01:08:26.027Z,49.95
2022-11-14T01:09:26.261Z,49.95
2022-11-14T01:10:26.382Z,49.95
2022-11-14T01:11:26.532Z,49.79
2022-11-14T01:12:26.659Z,49.47
2022-11-14T01:13:26.790Z,49.47
2022-11-14T01:14:27.578Z,49.47
2022-11-14T01:15:27.202Z,50.11
2022-11-14T01:16:28.074Z,50.11
2022-11-14T01:17:27.552Z,50.11
2022-11-14T01:18:28.175Z,49.95
2022-11-14T01:19:27.931Z,49.47
2022-11-14T01:20:28.060Z,49.95
2022-11-14T01:21:28.267Z,51.08
2022-11-14T01:22:28.392Z,51.88
2022-11-14T01:23:28.541Z,49.63
2022-11-14T01:24:29.578Z,68.80
2022-11-14T01:25:29.574Z,79.28
2022-11-14T01:26:29.025Z,56.56
2022-11-14T01:27:29.159Z,76.86
2022-11-14T01:28:29.555Z,53.17
2022-11-14T01:29:29.424Z,51.40
2022-11-14T01:30:29.558Z,50.27
2022-11-14T01:31:29.721Z,51.72
2022-11-14T01:32:30.578Z,50.60
2022-11-14T01:33:30.050Z,52.05
2022-11-14T01:34:30.199Z,49.63
2022-11-14T01:35:31.077Z,49.31
2022-11-14T01:36:30.647Z,49.31
2022-11-14T01:37:31.577Z,49.47
2022-11-14T01:38:31.261Z,49.95
2022-11-14T01:39:31.072Z,49.47
2022-11-14T01:40:32.080Z,49.63
2022-11-14T01:41:31.433Z,50.11
2022-11-14T01:42:31.694Z,51.40
2022-11-14T01:43:31.843Z,52.21
2022-11-14T01:44:32.579Z,50.11
2022-11-14T01:45:32.590Z,50.27
2022-11-14T01:46:32.324Z,50.76
2022-11-14T01:47:32.595Z,51.88
2022-11-14T01:48:32.790Z,50.27
2022-11-14T01:49:32.944Z,70.09
2022-11-14T01:50:33.105Z,52.85
2022-11-14T01:51:33.336Z,76.54
2022-11-14T01:52:33.485Z,55.11
2022-11-14T01:53:33.660Z,51.24
2022-11-14T01:54:33.815Z,80.08
2022-11-14T01:55:34.000Z,52.85
2022-11-14T01:56:34.160Z,54.95
2022-11-14T01:57:34.321Z,75.89
2022-11-14T01:58:34.503Z,51.24
2022-11-14T01:59:34.691Z,49.95
2022-11-14T02:00:35.586Z,49.47
2022-11-14T02:01:35.140Z,59.62
2022-11-14T02:02:36.086Z,76.05
2022-11-14T02:03:35.333Z,55.27
2022-11-14T02:04:35.470Z,72.35
2022-11-14T02:05:35.695Z,53.82
2022-11-14T02:06:36.676Z,50.11
2022-11-14T02:07:36.267Z,77.02
2022-11-14T02:08:36.595Z,50.43
2022-11-14T02:09:37.084Z,50.27
2022-11-14T02:10:36.716Z,49.79
2022-11-14T02:11:36.884Z,72.19
2022-11-14T02:12:37.057Z,52.37
2022-11-14T02:13:37.171Z,53.50
2022-11-14T02:14:37.307Z,50.27
2022-11-14T02:15:38.444Z,50.11
2022-11-14T02:16:38.097Z,50.27
2022-11-14T02:17:37.879Z,50.27
2022-11-14T02:18:38.027Z,50.11
2022-11-14T02:19:38.163Z,51.88
2022-11-14T02:20:38.301Z,51.56
2022-11-14T02:21:38.553Z,50.27
2022-11-14T02:22:38.674Z,53.17
2022-11-14T02:23:38.815Z,82.98
2022-11-14T02:24:39.590Z,53.33
2022-11-14T02:25:39.196Z,75.41
2022-11-14T02:26:39.348Z,75.09
2022-11-14T02:27:39.507Z,77.83
2022-11-14T02:28:39.649Z,69.77
2022-11-14T02:29:39.801Z,50.11
2022-11-14T02:30:39.972Z,77.83
2022-11-14T02:31:40.152Z,61.07
2022-11-14T02:33:08.894Z,53.33
2022-11-14T02:33:42.528Z,50.27
2022-11-14T02:34:40.732Z,49.79
2022-11-14T02:35:40.882Z,75.25
2022-11-14T02:36:40.987Z,51.40
2022-11-14T02:37:42.215Z,50.92
2022-11-14T02:38:41.334Z,54.46
2022-11-14T02:39:41.455Z,76.70
2022-11-14T02:40:41.574Z,49.95
2022-11-14T02:41:41.797Z,50.27
2022-11-14T02:42:42.592Z,61.55
2022-11-14T02:43:42.175Z,74.93
2022-11-14T02:44:42.396Z,60.10
2022-11-14T02:45:42.634Z,72.51
2022-11-14T02:46:42.739Z,67.03
2022-11-14T02:47:43.597Z,50.92
2022-11-14T02:48:43.058Z,49.95
2022-11-14T02:49:44.092Z,50.43
2022-11-14T02:50:43.469Z,50.27
2022-11-14T02:51:44.108Z,49.63
2022-11-14T02:52:43.850Z,49.31
2022-11-14T02:53:44.038Z,49.47
2022-11-14T02:54:45.103Z,49.95
2022-11-14T02:55:44.343Z,49.79
2022-11-14T02:57:17.881Z,52.21
2022-11-14T02:57:44.610Z,77.18
2022-11-14T02:58:45.631Z,57.85
2022-11-14T02:59:44.862Z,50.43
2022-11-14T03:01:13.543Z,50.60
2022-11-14T03:01:47.311Z,50.60
2022-11-14T03:02:45.438Z,73.48
2022-11-14T03:03:45.585Z,74.44
2022-11-14T03:04:46.628Z,76.38
2022-11-14T03:05:46.626Z,56.72
2022-11-14T03:06:46.284Z,52.05
2022-11-14T03:07:46.637Z,53.17
2022-11-14T03:08:46.610Z,76.22
2022-11-14T03:09:46.850Z,79.12
2022-11-14T03:10:46.977Z,59.94
2022-11-14T03:11:47.099Z,78.31
2022-11-14T03:12:47.343Z,75.09
2022-11-14T03:13:47.479Z,70.74
2022-11-14T03:14:47.637Z,77.18
2022-11-14T03:15:47.751Z,51.56
2022-11-14T03:16:47.885Z,76.86
2022-11-14T03:17:48.018Z,61.23
2022-11-14T03:18:49.157Z,75.57
2022-11-14T03:19:48.641Z,80.24
2022-11-14T03:20:48.518Z,74.28
2022-11-14T03:21:48.664Z,79.92
2022-11-14T03:22:48.789Z,78.63
2022-11-14T03:23:48.918Z,75.89
2022-11-14T03:24:49.172Z,61.55
2022-11-14T03:25:49.309Z,70.58
2022-11-14T03:26:49.454Z,77.50
2022-11-14T03:27:49.594Z,76.22
2022-11-14T03:28:49.760Z,54.14
2022-11-14T03:29:49.937Z,75.57
2022-11-14T03:30:50.629Z,55.75
2022-11-14T03:31:50.649Z,78.63
2022-11-14T03:32:50.434Z,77.34
2022-11-14T03:33:50.529Z,56.88
2022-11-14T03:34:50.665Z,75.57
2022-11-14T03:35:50.827Z,51.72
2022-11-14T03:36:50.972Z,76.70
2022-11-14T03:37:55.209Z,81.21
2022-11-14T03:38:54.136Z,61.07
2022-11-14T03:39:51.695Z,76.38
2022-11-14T03:40:51.754Z,62.52
2022-11-14T03:41:51.891Z,75.09
2022-11-14T03:42:52.632Z,81.86
2022-11-14T03:43:52.286Z,62.36
2022-11-14T03:44:52.495Z,77.99
2022-11-14T03:45:53.652Z,63.65
2022-11-14T03:46:52.894Z,78.31
2022-11-14T03:47:53.048Z,78.47
2022-11-14T03:48:53.213Z,79.92
2022-11-14T03:49:53.399Z,77.83
2022-11-14T03:50:53.569Z,75.25
2022-11-14T03:51:53.748Z,75.89
2022-11-14T03:52:53.901Z,74.60
2022-11-14T03:53:54.046Z,76.38
2022-11-14T03:54:54.280Z,78.15
2022-11-14T03:55:54.448Z,77.34
2022-11-14T03:56:54.567Z,76.86
2022-11-14T03:57:54.801Z,80.08
2022-11-14T03:58:54.933Z,53.17
2022-11-14T03:59:55.637Z,75.57
2022-11-14T04:00:55.308Z,78.31
2022-11-14T04:01:55.489Z,77.02
2022-11-14T04:02:55.658Z,78.15
2022-11-14T04:03:55.768Z,56.40
2022-11-14T04:04:56.013Z,78.31
2022-11-14T04:05:56.163Z,77.67
2022-11-14T04:06:56.277Z,77.67
2022-11-14T04:07:56.485Z,77.18
2022-11-14T04:08:56.591Z,79.12
2022-11-14T04:09:56.810Z,79.28
2022-11-14T04:10:56.912Z,80.08
2022-11-14T04:11:57.143Z,79.12
2022-11-14T04:12:57.654Z,77.67
2022-11-14T04:13:57.489Z,80.89
2022-11-14T04:14:58.146Z,80.41
2022-11-14T04:15:57.786Z,78.15
2022-11-14T04:16:58.641Z,82.18
2022-11-14T04:17:58.106Z,81.69
2022-11-14T04:18:58.328Z,80.89
2022-11-14T04:19:58.489Z,75.73
2022-11-14T04:20:58.637Z,79.76
2022-11-14T04:21:58.750Z,79.44
2022-11-14T04:22:58.893Z,79.76
2022-11-14T04:23:59.018Z,80.24
2022-11-14T04:24:59.223Z,78.63
2022-11-14T04:26:00.359Z,81.05
2022-11-14T04:26:59.567Z,84.11
2022-11-14T04:27:59.683Z,79.60
2022-11-14T04:28:59.926Z,78.15
2022-11-14T04:30:00.048Z,82.50
2022-11-14T04:31:00.657Z,81.37
2022-11-14T04:32:00.654Z,81.53
2022-11-14T04:33:00.526Z,81.21
2022-11-14T04:34:00.649Z,81.05
2022-11-14T04:35:00.781Z,78.79
2022-11-14T04:36:01.649Z,79.76
2022-11-14T04:37:01.168Z,84.43
2022-11-14T04:38:01.318Z,82.18
2022-11-14T04:39:01.473Z,82.02
2022-11-14T04:40:01.721Z,79.12
2022-11-14T04:41:01.863Z,79.12
2022-11-14T04:42:02.018Z,82.50
2022-11-14T04:43:03.167Z,81.05
2022-11-14T04:44:02.441Z,83.14
2022-11-14T04:45:02.657Z,81.05
2022-11-14T04:46:02.727Z,82.66
2022-11-14T04:47:03.655Z,79.12
2022-11-14T04:48:03.035Z,79.60
2022-11-14T04:49:03.190Z,80.57
2022-11-14T04:50:03.338Z,82.66
2022-11-14T04:51:03.475Z,80.08
2022-11-14T04:52:03.641Z,81.05
2022-11-14T04:53:03.783Z,83.95
2022-11-14T04:54:03.956Z,80.57
2022-11-14T04:55:04.301Z,79.76
2022-11-14T04:56:04.306Z,77.50
2022-11-14T04:57:04.423Z,81.21
2022-11-14T04:58:05.149Z,80.24
2022-11-14T04:59:04.793Z,80.73
2022-11-14T05:00:04.953Z,79.92
2022-11-14T05:01:05.668Z,79.44
2022-11-14T05:02:06.149Z,82.18
2022-11-14T05:03:05.400Z,77.67
2022-11-14T05:04:05.547Z,81.53
2022-11-14T05:05:05.683Z,78.96
2022-11-14T05:06:05.826Z,77.02
2022-11-14T05:07:06.025Z,81.21
2022-11-14T05:08:06.084Z,80.73
2022-11-14T05:09:06.255Z,82.98
2022-11-14T05:10:06.374Z,79.28
2022-11-14T05:11:07.148Z,83.14
2022-11-14T05:12:06.649Z,85.40
2022-11-14T05:13:06.776Z,77.34
2022-11-14T05:14:06.920Z,78.63
2022-11-14T05:15:07.043Z,79.60
2022-11-14T05:16:07.187Z,79.12
2022-11-14T05:17:07.302Z,80.24
2022-11-14T05:18:07.533Z,82.18
2022-11-14T05:19:07.648Z,82.98
2022-11-14T05:20:07.875Z,91.20
2022-11-14T05:21:08.176Z,80.57
2022-11-14T05:22:08.183Z,81.53
2022-11-14T05:23:08.340Z,80.41
2022-11-14T05:24:08.455Z,80.73
2022-11-14T05:25:08.693Z,82.50
2022-11-14T05:26:08.804Z,81.37
2022-11-14T05:27:08.927Z,80.08
2022-11-14T05:28:09.171Z,77.67
2022-11-14T05:29:09.174Z,80.08
2022-11-14T05:30:09.298Z,81.53
2022-11-14T05:31:09.441Z,78.63
2022-11-14T05:32:15.071Z,83.14
2022-11-14T05:33:11.815Z,82.34
2022-11-14T05:34:10.662Z,78.96
2022-11-14T05:35:10.160Z,80.08
2022-11-14T05:36:10.334Z,80.73
2022-11-14T05:37:10.669Z,80.41
2022-11-14T05:38:10.649Z,82.50
2022-11-14T05:39:10.885Z,82.82
2022-11-14T05:40:11.038Z,80.89
2022-11-14T05:41:11.171Z,77.18
2022-11-14T05:42:11.321Z,79.60
2022-11-14T05:43:11.445Z,80.89
2022-11-14T05:44:11.562Z,81.21
2022-11-14T05:45:12.170Z,79.44
2022-11-14T05:46:13.034Z,82.34
2022-11-14T05:47:12.260Z,82.18
2022-11-14T05:48:12.488Z,81.86
2022-11-14T05:49:12.606Z,80.08
2022-11-14T05:50:12.758Z,81.37
2022-11-14T05:51:13.659Z,81.69
2022-11-14T05:52:13.022Z,80.57
2022-11-14T05:53:13.181Z,83.31
2022-11-14T05:54:13.335Z,82.82
2022-11-14T05:55:13.675Z,82.66
2022-11-14T05:56:13.674Z,80.08
2022-11-14T05:57:13.806Z,78.79
2022-11-14T05:58:13.971Z,82.50
2022-11-14T05:59:14.113Z,78.47
2022-11-14T06:00:15.165Z,77.50
2022-11-14T06:01:14.401Z,83.47
2022-11-14T06:02:14.592Z,77.34
2022-11-14T06:03:14.796Z,81.21
2022-11-14T06:04:14.917Z,85.08
2022-11-14T06:05:15.662Z,79.12
2022-11-14T06:06:15.184Z,79.44
2022-11-14T06:07:19.888Z,80.24
2022-11-14T06:08:17.545Z,82.50
2022-11-14T06:09:15.769Z,80.08
2022-11-14T06:10:15.901Z,80.57
2022-11-14T06:11:16.034Z,80.41
2022-11-14T06:12:16.182Z,79.44
2022-11-14T06:13:16.305Z,84.27
2022-11-14T06:14:17.165Z,81.53
2022-11-14T06:15:16.664Z,79.28
2022-11-14T06:16:16.810Z,82.02
2022-11-14T06:17:16.958Z,78.79
2022-11-14T06:18:17.205Z,80.24
2022-11-14T06:19:18.165Z,85.24
2022-11-14T06:20:17.516Z,81.37
2022-11-14T06:21:17.773Z,80.41
2022-11-14T06:22:17.906Z,80.24
2022-11-14T06:23:23.461Z,84.76
2022-11-14T06:24:21.167Z,83.63
2022-11-14T06:25:18.468Z,79.28
2022-11-14T06:26:18.590Z,80.89
2022-11-14T06:27:18.717Z,81.05
2022-11-14T06:28:18.873Z,83.14
2022-11-14T06:29:19.664Z,84.76
2022-11-14T06:30:19.683Z,78.15
2022-11-14T06:31:19.341Z,83.47
2022-11-14T06:32:19.503Z,80.41
2022-11-14T06:33:19.650Z,79.76
2022-11-14T06:34:20.179Z,79.12
2022-11-14T06:35:20.676Z,80.08
2022-11-14T06:36:20.164Z,82.66
2022-11-14T06:37:20.298Z,78.63
2022-11-14T06:38:20.426Z,80.57
2022-11-14T06:39:20.598Z,84.92
2022-11-14T06:40:20.769Z,79.60
2022-11-14T06:41:20.910Z,79.60
2022-11-14T06:42:21.045Z,81.86
2022-11-14T06:43:21.178Z,82.82
2022-11-14T06:44:25.134Z,82.82
2022-11-14T06:45:22.473Z,80.24
2022-11-14T06:46:22.178Z,81.37
2022-11-14T06:47:21.800Z,82.50
2022-11-14T06:48:21.946Z,80.41
2022-11-14T06:49:22.104Z,77.50
2022-11-14T06:50:22.289Z,82.02
2022-11-14T06:51:22.465Z,80.73
2022-11-14T06:52:22.703Z,78.63
2022-11-14T06:53:22.805Z,80.89
2022-11-14T06:54:22.968Z,80.73
2022-11-14T06:55:25.525Z,78.96
2022-11-14T06:56:24.287Z,97.00
2022-11-14T06:57:24.172Z,79.60
2022-11-14T06:58:23.563Z,80.57
2022-11-14T06:59:23.701Z,81.05
2022-11-14T07:00:23.852Z,82.66
2022-11-14T07:01:24.042Z,81.37
2022-11-14T07:02:24.189Z,77.67
2022-11-14T07:03:24.409Z,81.53
2022-11-14T07:04:24.571Z,80.57
2022-11-14T07:05:24.698Z,79.44
2022-11-14T07:06:24.862Z,79.44
2022-11-14T07:07:25.130Z,82.50
2022-11-14T07:08:25.687Z,78.96
2022-11-14T07:09:26.170Z,81.37
2022-11-14T07:10:25.658Z,79.60
2022-11-14T07:11:25.811Z,78.47
2022-11-14T07:12:25.958Z,84.59
2022-11-14T07:13:26.130Z,81.37
2022-11-14T07:14:26.286Z,80.08
2022-11-14T07:15:26.700Z,83.14
2022-11-14T07:16:26.597Z,80.24
2022-11-14T07:17:31.191Z,81.37
2022-11-14T07:18:28.178Z,80.24
2022-11-14T07:19:27.121Z,80.41
2022-11-14T07:20:27.687Z,77.83
2022-11-14T07:21:27.436Z,86.04
2022-11-14T07:22:28.188Z,78.15
2022-11-14T07:23:27.712Z,81.86
2022-11-14T07:24:28.190Z,82.66
2022-11-14T07:25:28.197Z,80.24
2022-11-14T07:26:28.240Z,83.47
2022-11-14T07:27:29.180Z,80.73
2022-11-14T07:28:28.909Z,81.86
2022-11-14T07:29:28.731Z,80.24
2022-11-14T07:30:28.887Z,80.73
2022-11-14T07:31:29.054Z,81.69
2022-11-14T07:32:29.216Z,80.24
2022-11-14T07:33:29.386Z,79.76
2022-11-14T07:34:29.550Z,79.60
2022-11-14T07:35:29.687Z,79.60
2022-11-14T07:36:30.189Z,79.28
2022-11-14T07:37:29.988Z,82.82
2022-11-14T07:38:31.119Z,81.37
2022-11-14T07:39:30.365Z,81.37
2022-11-14T07:40:30.561Z,82.98
2022-11-14T07:41:31.692Z,83.31
2022-11-14T07:42:30.944Z,79.92
2022-11-14T07:43:31.681Z,83.79
2022-11-14T07:44:31.333Z,79.92
2022-11-14T07:45:31.496Z,80.57
2022-11-14T07:46:31.666Z,81.69
2022-11-14T07:47:31.825Z,78.15
2022-11-14T07:48:32.268Z,81.21
2022-11-14T07:49:32.195Z,80.24
2022-11-14T07:50:32.357Z,78.31
2022-11-14T07:51:32.697Z,80.24
2022-11-14T07:52:32.724Z,90.23
2022-11-14T07:53:32.858Z,80.73
2022-11-14T07:54:33.019Z,79.44
2022-11-14T07:55:33.187Z,77.83
2022-11-14T07:56:33.319Z,80.41
2022-11-14T07:57:38.905Z,78.63
2022-11-14T07:58:36.689Z,82.18
2022-11-14T07:59:33.905Z,81.69
2022-11-14T08:00:34.770Z,79.92
2022-11-14T08:01:34.771Z,79.76
2022-11-14T08:02:34.442Z,82.18
2022-11-14T08:03:34.633Z,89.11
2022-11-14T08:04:34.780Z,77.83
2022-11-14T08:05:34.934Z,79.76
2022-11-14T08:06:35.121Z,78.31
2022-11-14T08:07:35.356Z,77.67
2022-11-14T08:08:35.463Z,83.47
2022-11-14T08:09:35.600Z,80.57
2022-11-14T08:10:35.747Z,76.22
2022-11-14T08:11:36.201Z,81.69
2022-11-14T08:12:36.106Z,79.28
2022-11-14T08:13:36.268Z,81.21
2022-11-14T08:14:36.417Z,79.60
2022-11-14T08:15:36.575Z,80.08
2022-11-14T08:16:36.705Z,81.05
2022-11-14T08:17:36.839Z,77.02
2022-11-14T08:18:37.689Z,81.05
2022-11-14T08:19:37.215Z,78.96
2022-11-14T08:20:37.412Z,77.67
2022-11-14T08:21:37.582Z,77.99
2022-11-14T08:22:37.742Z,89.43
2022-11-14T08:23:37.885Z,79.60
2022-11-14T08:24:38.025Z,80.24
2022-11-14T08:25:38.192Z,80.08
2022-11-14T08:26:38.360Z,76.86
2022-11-14T08:27:38.520Z,84.43
2022-11-14T08:28:38.665Z,79.92
2022-11-14T08:29:38.829Z,78.31
2022-11-14T08:30:38.979Z,79.76
2022-11-14T08:31:39.202Z,82.18
2022-11-14T08:32:39.357Z,76.70
2022-11-14T08:33:39.539Z,81.69
2022-11-14T08:34:39.679Z,80.73
2022-11-14T08:35:39.888Z,78.15
2022-11-14T08:36:40.072Z,106.99
2022-11-14T08:37:40.197Z,81.86
2022-11-14T08:38:40.340Z,79.28
2022-11-14T08:39:40.520Z,76.05
2022-11-14T08:40:40.659Z,78.96
2022-11-14T08:41:40.811Z,78.63
2022-11-14T08:42:40.985Z,81.21
2022-11-14T08:43:41.175Z,83.95
2022-11-14T08:44:41.341Z,81.53
2022-11-14T08:45:41.507Z,78.63
2022-11-14T08:46:41.709Z,78.47
2022-11-14T08:47:41.874Z,77.18
2022-11-14T08:48:42.693Z,78.63
2022-11-14T08:49:42.194Z,81.05
2022-11-14T08:50:42.343Z,90.56
2022-11-14T08:51:42.489Z,81.05
2022-11-14T08:52:42.685Z,77.67
2022-11-14T08:53:42.827Z,78.79
2022-11-14T08:54:42.964Z,80.41
2022-11-14T08:55:43.099Z,79.60
2022-11-14T08:56:43.235Z,79.44
2022-11-14T08:57:49.050Z,81.21
2022-11-14T08:58:46.199Z,76.38
2022-11-14T08:59:43.656Z,77.18
2022-11-14T09:00:43.794Z,86.04
2022-11-14T09:01:44.949Z,79.28
2022-11-14T09:02:44.199Z,76.86
2022-11-14T09:03:44.529Z,78.15
2022-11-14T09:04:44.812Z,81.05
2022-11-14T09:05:44.753Z,81.69
2022-11-14T09:06:44.944Z,77.18
2022-11-14T09:07:45.074Z,80.24
2022-11-14T09:08:46.198Z,77.02
2022-11-14T09:09:45.711Z,79.28
2022-11-14T09:10:45.591Z,77.83
2022-11-14T09:11:46.735Z,77.50
2022-11-14T09:12:45.960Z,77.50
2022-11-14T09:13:46.101Z,84.43
2022-11-14T09:14:46.233Z,79.76
2022-11-14T09:15:46.375Z,80.73
2022-11-14T09:16:46.511Z,77.99
2022-11-14T09:17:46.744Z,81.21
2022-11-14T09:18:47.702Z,77.83
2022-11-14T09:19:47.705Z,76.70
2022-11-14T09:20:47.209Z,79.76
2022-11-14T09:21:47.363Z,78.15
2022-11-14T09:22:47.554Z,77.02
2022-11-14T09:23:47.701Z,76.70
2022-11-14T09:24:48.705Z,79.12
2022-11-14T09:25:48.107Z,76.22
2022-11-14T09:26:52.118Z,80.89
2022-11-14T09:27:49.404Z,78.31
2022-11-14T09:28:48.499Z,80.24
2022-11-14T09:29:48.636Z,79.28
2022-11-14T09:30:48.763Z,78.63
2022-11-14T09:31:48.883Z,83.79
2022-11-14T09:32:49.032Z,80.89
2022-11-14T09:33:49.180Z,78.47
2022-11-14T09:34:49.402Z,78.96
2022-11-14T09:35:49.639Z,77.99
2022-11-14T09:36:49.761Z,81.69
2022-11-14T09:37:49.912Z,75.89
2022-11-14T09:38:50.011Z,81.21
2022-11-14T09:39:50.142Z,80.41
2022-11-14T09:40:50.278Z,77.50
2022-11-14T09:41:50.428Z,77.99
2022-11-14T09:42:50.605Z,79.12
2022-11-14T09:43:50.771Z,77.50
2022-11-14T09:44:50.896Z,77.50
2022-11-14T09:45:51.049Z,78.31
2022-11-14T09:46:51.187Z,79.76
2022-11-14T09:47:51.336Z,82.82
2022-11-14T09:48:51.505Z,78.96
2022-11-14T09:49:51.659Z,77.99
2022-11-14T09:50:51.822Z,77.34
2022-11-14T09:51:51.987Z,80.89
2022-11-14T09:52:52.114Z,77.34
2022-11-14T09:53:52.751Z,80.08
2022-11-14T09:54:52.387Z,79.76
2022-11-14T09:55:52.531Z,79.28
2022-11-14T09:56:52.678Z,84.27
2022-11-14T09:57:52.811Z,80.24
2022-11-14T09:58:52.967Z,78.79
2022-11-14T09:59:53.159Z,80.08
2022-11-14T10:00:53.343Z,77.50
2022-11-14T10:01:53.523Z,80.24
2022-11-14T10:02:54.215Z,82.34
2022-11-14T10:03:53.857Z,79.44
2022-11-14T10:04:54.231Z,79.76
2022-11-14T10:05:54.136Z,79.44
2022-11-14T10:06:54.323Z,82.02
2022-11-14T10:07:54.403Z,80.24
2022-11-14T10:08:54.566Z,82.98
2022-11-14T10:09:54.749Z,80.24
2022-11-14T10:10:54.940Z,78.15
2022-11-14T10:11:55.722Z,82.82
2022-11-14T10:12:55.306Z,80.41
2022-11-14T10:13:55.497Z,77.67
2022-11-14T10:14:55.731Z,78.79
2022-11-14T10:15:56.721Z,78.63
2022-11-14T10:16:56.140Z,76.70
2022-11-14T10:17:57.236Z,78.47
2022-11-14T10:18:57.228Z,77.18
2022-11-14T10:19:56.521Z,79.76
2022-11-14T10:20:56.676Z,76.70
2022-11-14T10:21:56.833Z,77.34
2022-11-14T10:23:01.395Z,81.37
2022-11-14T10:23:58.727Z,77.99
2022-11-14T10:24:57.354Z,85.24
2022-11-14T10:25:57.487Z,79.60
2022-11-14T10:26:58.224Z,77.67
2022-11-14T10:28:04.828Z,82.50
2022-11-14T10:29:00.054Z,78.79
2022-11-14T10:29:58.312Z,80.41
2022-11-14T10:30:58.438Z,80.41
2022-11-14T10:31:58.598Z,78.31
2022-11-14T10:32:58.742Z,80.73
2022-11-14T10:33:58.881Z,78.63
2022-11-14T10:34:59.053Z,77.50
2022-11-14T10:35:59.469Z,78.47
2022-11-14T10:36:59.379Z,80.24
2022-11-14T10:37:59.512Z,80.41
2022-11-14T10:38:59.658Z,82.34
2022-11-14T10:39:59.776Z,76.22
2022-11-14T10:40:59.930Z,75.73
2022-11-14T10:42:04.536Z,78.96
2022-11-14T10:43:03.225Z,78.31
2022-11-14T10:44:01.226Z,78.15
2022-11-14T10:45:00.615Z,77.67
2022-11-14T10:46:01.249Z,82.34
2022-11-14T10:47:01.021Z,77.99
2022-11-14T10:48:01.176Z,79.12
2022-11-14T10:49:01.323Z,80.08
2022-11-14T10:50:01.484Z,79.60
2022-11-14T10:51:01.625Z,84.59
2022-11-14T10:52:01.768Z,81.21
2022-11-14T10:53:01.920Z,82.34
2022-11-14T10:54:02.093Z,79.76
2022-11-14T10:55:02.250Z,81.05
2022-11-14T10:56:05.181Z,77.99
2022-11-14T10:57:03.657Z,79.92
2022-11-14T10:58:02.775Z,80.41
2022-11-14T10:59:02.929Z,78.79
2022-11-14T11:00:03.112Z,83.31
2022-11-14T11:01:03.322Z,79.76
2022-11-14T11:02:03.401Z,76.86
2022-11-14T11:03:04.234Z,79.12
2022-11-14T11:04:03.811Z,79.76
2022-11-14T11:05:03.902Z,79.76
2022-11-14T11:06:04.068Z,79.28
2022-11-14T11:07:04.221Z,78.63
2022-11-14T11:08:28.218Z,79.76
2022-11-14T11:09:06.616Z,75.73
2022-11-14T11:10:04.721Z,79.76
2022-11-14T11:11:05.739Z,78.31
2022-11-14T11:12:05.114Z,80.24
2022-11-14T11:13:05.332Z,78.79
2022-11-14T11:14:06.246Z,77.34
2022-11-14T11:15:05.634Z,80.08
2022-11-14T11:16:05.829Z,79.12
2022-11-14T11:17:06.762Z,78.31
2022-11-14T11:18:06.164Z,76.86
2022-11-14T11:19:06.365Z,78.63
2022-11-14T11:20:07.699Z,78.47
2022-11-14T11:21:07.816Z,76.22
2022-11-14T11:22:06.866Z,79.44
2022-11-14T11:23:07.020Z,77.34
2022-11-14T11:24:07.220Z,75.89
2022-11-14T11:25:08.240Z,80.24
2022-11-14T11:26:07.518Z,78.31
2022-11-14T11:27:07.703Z,78.63
2022-11-14T11:28:08.737Z,76.05
2022-11-14T11:29:07.977Z,81.86
2022-11-14T11:30:08.137Z,78.15
2022-11-14T11:31:09.256Z,77.50
2022-11-14T11:32:08.403Z,78.31
2022-11-14T11:33:08.544Z,79.44
2022-11-14T11:34:08.704Z,77.99
2022-11-14T11:35:08.883Z,77.83
2022-11-14T11:36:09.741Z,80.57
2022-11-14T11:37:09.345Z,77.50
2022-11-14T11:38:12.933Z,77.99
2022-11-14T11:39:11.242Z,80.08
2022-11-14T11:40:09.849Z,82.66
2022-11-14T11:41:15.613Z,77.99
2022-11-14T11:42:11.311Z,77.18
2022-11-14T11:43:38.024Z,79.12
2022-11-14T11:44:12.642Z,79.92
2022-11-14T11:45:10.869Z,85.56
2022-11-14T11:46:11.743Z,78.79
2022-11-14T11:47:11.756Z,78.96
2022-11-14T11:48:11.434Z,81.86
2022-11-14T11:49:12.246Z,75.57
2022-11-14T11:50:11.716Z,76.22
2022-11-14T11:51:12.743Z,77.83
2022-11-14T11:52:12.107Z,77.18
2022-11-14T11:53:12.285Z,76.38
2022-11-14T11:54:12.441Z,76.86
2022-11-14T11:55:13.619Z,78.79
2022-11-14T11:56:13.749Z,80.41
2022-11-14T11:57:20.134Z,78.15
2022-11-14T11:58:15.120Z,79.12
2022-11-14T11:59:13.748Z,76.70
2022-11-14T12:00:14.304Z,78.96
2022-11-14T12:01:14.345Z,76.38
2022-11-14T12:02:13.914Z,80.24
2022-11-14T12:03:14.364Z,78.63
2022-11-14T12:04:15.265Z,77.50
2022-11-14T12:05:15.248Z,80.24
2022-11-14T12:06:14.760Z,80.24
2022-11-14T12:07:14.883Z,77.83
2022-11-14T12:08:21.078Z,81.69
2022-11-14T12:09:17.135Z,80.24
2022-11-14T12:10:16.401Z,79.44
2022-11-14T12:11:15.433Z,79.28
2022-11-14T12:12:15.640Z,77.34
2022-11-14T12:13:15.840Z,79.92
2022-11-14T12:14:16.766Z,77.18
2022-11-14T12:15:16.164Z,81.05
2022-11-14T12:16:16.333Z,77.99
2022-11-14T12:17:16.547Z,78.15
2022-11-14T12:18:16.728Z,74.44
2022-11-14T12:19:17.751Z,77.18
2022-11-14T12:20:17.116Z,78.96
2022-11-14T12:21:17.294Z,77.99
2022-11-14T12:22:17.437Z,83.63
2022-11-14T12:23:17.603Z,78.79
2022-11-14T12:24:17.785Z,78.96
2022-11-14T12:25:17.974Z,80.73
2022-11-14T12:26:18.150Z,76.70
2022-11-14T12:27:18.447Z,80.24
2022-11-14T12:28:18.509Z,78.79
2022-11-14T12:29:22.550Z,78.31
2022-11-14T12:30:20.912Z,82.34
2022-11-14T12:31:19.753Z,78.15
2022-11-14T12:32:19.311Z,79.44
2022-11-14T12:33:19.478Z,78.15
2022-11-14T12:34:19.663Z,76.70
2022-11-14T12:35:19.878Z,82.02
2022-11-14T12:36:20.302Z,76.38
2022-11-14T12:37:20.151Z,78.31
2022-11-14T12:38:20.246Z,81.53
2022-11-14T12:39:21.260Z,79.92
2022-11-14T12:40:20.680Z,78.31
2022-11-14T12:41:20.851Z,78.96
2022-11-14T12:42:21.769Z,78.79
2022-11-14T12:43:21.152Z,75.73
2022-11-14T12:44:21.337Z,81.53
2022-11-14T12:45:21.522Z,78.63
2022-11-14T12:46:21.660Z,78.47
2022-11-14T12:47:21.831Z,79.60
2022-11-14T12:48:21.966Z,77.34
2022-11-14T12:49:22.108Z,77.83
2022-11-14T12:50:22.267Z,77.83
2022-11-14T12:51:22.809Z,78.79
2022-11-14T12:52:22.638Z,77.99
2022-11-14T12:53:22.797Z,78.79
2022-11-14T12:54:22.961Z,83.14